Time;durP1;ratioP1;P1;durP2;ratioP2;P2;SDS_P1;SDS_P2;PMS_P1;PMS_P2;Temp;Humidity;BMP_temperature;BMP_pressure;BME280_temperature;BME280_humidity;BME280_pressure;Samples;Min_cycle;Max_cycle;Signal;HPM_P1;HPM_P2
2021/10/23 00:00:12;;;;;;;7.65;3.28;;;7.50;99.90;;;5.61;100.00;102032.47;2567498;30;137444;-38
2021/10/23 00:02:39;;;;;;;7.45;2.78;;;7.40;99.90;;;5.55;100.00;102040.31;2568860;30;138697;-38
2021/10/23 00:05:07;;;;;;;8.70;2.92;;;7.30;99.90;;;5.48;100.00;102034.63;2570129;30;137211;-38
2021/10/23 00:07:35;;;;;;;6.65;3.10;;;7.20;99.90;;;5.47;100.00;102051.88;2568438;30;138137;-38
2021/10/23 00:10:06;;;;;;;6.97;3.03;;;7.20;99.90;;;5.52;100.00;102056.88;2570200;30;138469;-38
2021/10/23 00:12:34;;;;;;;8.13;3.78;;;7.20;99.90;;;5.49;100.00;102046.34;2569598;30;137924;-38
2021/10/23 00:15:03;;;;;;;;;;;7.20;99.90;;;5.57;100.00;102049.13;2566897;30;137384;-38
2021/10/23 00:17:30;;;;;;;7.47;3.40;;;7.20;99.90;;;5.68;100.00;102053.50;2570252;30;138281;-38
2021/10/23 00:20:00;;;;;;;9.52;4.25;;;7.30;99.90;;;5.78;100.00;102056.19;2569619;30;137450;-38
2021/10/23 00:22:31;;;;;;;7.18;3.30;;;7.40;99.90;;;5.84;100.00;102051.03;2569485;30;137452;-38
2021/10/23 00:25:00;;;;;;;7.70;4.65;;;7.40;99.90;;;5.89;100.00;102048.69;2571768;30;137746;-38
2021/10/23 00:27:28;;;;;;;9.43;3.90;;;7.50;99.90;;;5.94;100.00;102058.22;2568505;30;138269;-38
2021/10/23 00:29:59;;;;;;;8.30;4.47;;;7.50;99.90;;;5.92;100.00;102058.34;2569472;30;139334;-38
2021/10/23 00:32:29;;;;;;;;;;;7.60;99.90;;;5.96;100.00;102058.94;2569559;30;137917;-38
2021/10/23 00:34:57;;;;;;;9.65;4.60;;;7.60;99.90;;;6.01;100.00;102067.47;2568735;30;137562;-38
2021/10/23 00:37:24;;;;;;;9.15;4.53;;;7.60;99.90;;;6.03;100.00;102076.31;2571689;30;136891;-38
2021/10/23 00:39:52;;;;;;;11.15;5.03;;;7.70;99.90;;;6.04;100.00;102073.44;2567959;30;137333;-38
2021/10/23 00:42:20;;;;;;;7.88;4.40;;;7.70;99.90;;;6.08;100.00;102065.00;2567777;30;137443;-38
2021/10/23 00:44:51;;;;;;;10.88;4.75;;;7.70;99.90;;;6.10;100.00;102072.00;2566917;30;137816;-38
2021/10/23 00:47:20;;;;;;;8.68;4.78;;;7.70;99.90;;;6.12;100.00;102083.53;2572159;30;137055;-38
2021/10/23 00:49:53;;;;;;;7.90;4.80;;;7.70;99.90;;;6.13;100.00;102084.38;2570661;30;136930;-38
2021/10/23 00:52:24;;;;;;;10.82;5.43;;;7.80;99.90;;;6.12;100.00;102090.81;2570595;30;137448;-38
2021/10/23 00:54:53;;;;;;;9.60;5.20;;;7.80;99.90;;;6.24;100.00;102091.44;2568602;30;138289;-38
2021/10/23 00:57:21;;;;;;;8.60;5.22;;;7.80;99.90;;;6.23;100.00;102093.28;2569479;30;138337;-38
2021/10/23 00:59:49;;;;;;;8.70;5.43;;;7.80;99.90;;;6.20;100.00;102096.31;2567744;30;137533;-38
2021/10/23 01:02:16;;;;;;;;;;;7.90;99.90;;;6.24;100.00;102100.44;2570792;30;137134;-38
2021/10/23 01:04:45;;;;;;;10.13;5.65;;;7.90;99.90;;;6.26;100.00;102100.28;2568761;30;137853;-38
2021/10/23 01:07:12;;;;;;;11.32;6.32;;;7.90;99.90;;;6.29;100.00;102102.66;2568116;30;138690;-38
2021/10/23 01:09:41;;;;;;;11.38;6.25;;;7.90;99.90;;;6.35;100.00;102098.50;2570645;30;138295;-38
2021/10/23 01:12:12;;;;;;;12.80;6.45;;;8.00;99.90;;;6.41;100.00;102100.59;2568699;30;138359;-38
2021/10/23 01:14:45;;;;;;;13.13;6.47;;;8.00;99.90;;;6.44;100.00;102098.44;2570774;30;137039;-38
2021/10/23 01:17:23;;;;;;;11.25;6.60;;;8.00;99.90;;;6.46;100.00;102099.13;2571915;30;137482;-38
2021/10/23 01:19:57;;;;;;;10.63;6.60;;;8.10;99.90;;;6.44;100.00;102101.16;2569705;30;137730;-38
2021/10/23 01:22:27;;;;;;;14.15;6.72;;;8.10;99.90;;;6.50;100.00;102099.69;2569518;30;138404;-38
2021/10/23 01:24:56;;;;;;;12.73;6.78;;;8.10;99.90;;;6.46;100.00;102098.28;2570507;30;137786;-38
2021/10/23 01:27:24;;;;;;;15.45;7.43;;;8.10;99.90;;;6.53;100.00;102095.81;2569417;30;139455;-38
2021/10/23 01:29:51;;;;;;;15.60;6.88;;;8.10;99.90;;;6.52;100.00;102094.97;2566257;30;136969;-38
2021/10/23 01:32:19;;;;;;;14.10;7.70;;;8.10;99.90;;;6.51;100.00;102100.53;2568163;30;138328;-38
2021/10/23 01:34:46;;;;;;;11.75;6.65;;;8.10;99.90;;;6.55;100.00;102101.91;2565838;30;138195;-38
2021/10/23 01:37:15;;;;;;;14.80;7.55;;;8.10;99.90;;;6.59;100.00;102087.03;2570208;30;138323;-38
2021/10/23 01:39:42;;;;;;;12.52;7.68;;;8.10;99.90;;;6.61;100.00;102094.03;2568845;30;137661;-38
2021/10/23 01:42:10;;;;;;;13.15;7.32;;;8.20;99.90;;;6.60;100.00;102092.31;2567581;30;137371;-38
2021/10/23 01:44:37;;;;;;;13.98;8.15;;;8.20;99.90;;;6.61;100.00;102082.31;2570765;30;136921;-38
2021/10/23 01:47:08;;;;;;;14.43;7.65;;;8.20;99.90;;;6.68;100.00;102091.56;2571333;30;137446;-38
2021/10/23 01:49:35;;;;;;;17.35;8.20;;;8.30;99.90;;;6.62;100.00;102092.16;2569695;30;136957;-38
2021/10/23 01:52:03;;;;;;;14.45;7.93;;;8.20;99.90;;;6.60;100.00;102094.16;2568645;30;138275;-38
2021/10/23 01:54:30;;;;;;;11.88;7.65;;;8.20;99.90;;;6.58;100.00;102086.22;2570036;30;137365;-38
2021/10/23 01:56:58;;;;;;;13.50;7.65;;;8.20;99.90;;;6.52;100.00;102085.97;2568323;30;138437;-38
2021/10/23 01:59:26;;;;;;;13.32;7.50;;;8.20;99.90;;;6.53;100.00;102084.97;2567810;30;137318;-38
2021/10/23 02:01:53;;;;;;;15.00;7.70;;;8.20;99.90;;;6.47;100.00;102079.16;2568464;30;137764;-38
2021/10/23 02:04:21;;;;;;;15.38;8.27;;;8.10;99.90;;;6.42;100.00;102075.19;2567954;30;137317;-38
2021/10/23 02:06:48;;;;;;;13.40;7.43;;;8.10;99.90;;;6.35;100.00;102072.22;2570010;30;137486;-38
2021/10/23 02:09:16;;;;;;;13.65;7.28;;;8.00;99.90;;;6.29;100.00;102067.44;2567276;30;137743;-38
2021/10/23 02:11:43;;;;;;;15.23;8.10;;;8.00;99.90;;;6.17;100.00;102067.66;2570349;30;138233;-38
2021/10/23 02:14:11;;;;;;;12.52;7.68;;;7.90;99.90;;;6.07;100.00;102058.72;2570138;30;137334;-38
2021/10/23 02:16:38;;;;;;;13.13;7.15;;;7.80;99.90;;;6.01;100.00;102062.06;2567952;30;139247;-38
2021/10/23 02:19:06;;;;;;;12.00;7.43;;;7.70;99.90;;;5.95;100.00;102049.94;2570420;30;137406;-38
2021/10/23 02:21:34;;;;;;;14.90;7.88;;;7.70;99.90;;;5.94;100.00;102055.50;2569333;30;137820;-38
2021/10/23 02:24:02;;;;;;;12.88;7.05;;;7.70;99.90;;;5.86;100.00;102054.44;2576825;30;137465;-40
2021/10/23 02:26:29;;;;;;;11.93;7.13;;;7.60;99.90;;;5.78;100.00;102067.84;2568122;30;138870;-40
2021/10/23 02:28:57;;;;;;;12.68;7.00;;;7.50;99.90;;;5.69;100.00;102063.34;2566717;30;136727;-40
2021/10/23 02:31:27;;;;;;;13.32;7.15;;;7.40;99.90;;;5.63;100.00;102074.78;2568579;30;138254;-40
2021/10/23 02:33:55;;;;;;;14.40;7.55;;;7.40;99.90;;;5.56;100.00;102069.09;2566034;30;138917;-40
2021/10/23 02:36:23;;;;;;;12.60;7.03;;;7.30;99.90;;;5.47;100.00;102060.88;2567306;30;138249;-40
2021/10/23 02:38:51;;;;;;;11.18;6.75;;;7.20;99.90;;;5.38;100.00;102059.03;2568072;30;137376;-40
2021/10/23 02:41:22;;;;;;;10.95;6.88;;;7.10;99.90;;;5.28;100.00;102050.94;2567138;30;138279;-40
2021/10/23 02:43:50;;;;;;;15.38;7.68;;;7.00;99.90;;;5.24;100.00;102070.34;2565818;30;137504;-40
2021/10/23 02:46:20;;;;;;;11.80;6.63;;;7.00;99.90;;;5.18;100.00;102074.47;2564827;30;138489;-40
2021/10/23 02:48:47;;;;;;;12.18;6.97;;;6.90;99.90;;;5.09;100.00;102078.91;2569566;30;137430;-40
2021/10/23 02:51:15;;;;;;;12.98;6.78;;;6.90;99.90;;;4.98;100.00;102081.78;2567400;30;138206;-40
2021/10/23 02:53:43;;;;;;;9.80;6.20;;;6.80;99.90;;;4.89;100.00;102078.09;2568232;30;137194;-40
2021/10/23 02:56:10;;;;;;;14.05;6.20;;;6.70;99.90;;;4.80;100.00;102092.50;2568715;30;137313;-39
2021/10/23 02:58:37;;;;;;;10.80;6.40;;;6.60;99.90;;;4.73;100.00;102087.63;2567997;30;137223;-39
2021/10/23 03:01:05;;;;;;;11.05;6.38;;;6.50;99.90;;;4.71;100.00;102095.03;2568236;30;137429;-40
2021/10/23 03:03:33;;;;;;;9.70;5.97;;;6.50;99.90;;;4.65;100.00;102102.88;2566250;30;137528;-40
2021/10/23 03:06:00;;;;;;;11.15;6.45;;;6.40;99.90;;;4.59;100.00;102102.44;2568272;30;139229;-39
2021/10/23 03:08:28;;;;;;;10.35;6.13;;;6.40;99.90;;;4.56;100.00;102116.22;2567231;30;138466;-39
2021/10/23 03:10:55;;;;;;;11.00;6.78;;;6.40;99.90;;;4.55;100.00;102121.78;2569779;30;137487;-40
2021/10/23 03:13:23;;;;;;;8.85;5.78;;;6.30;99.90;;;4.51;100.00;102115.81;2568098;30;138063;-39
2021/10/23 03:15:53;;;;;;;10.55;5.68;;;6.30;99.90;;;4.44;100.00;102114.66;2567947;30;138336;-39
2021/10/23 03:18:20;;;;;;;12.43;6.53;;;6.20;99.90;;;4.36;100.00;102115.34;2565730;30;138460;-40
2021/10/23 03:20:50;;;;;;;11.95;5.90;;;6.10;99.90;;;4.30;100.00;102113.22;2568103;30;138479;-40
2021/10/23 03:23:20;;;;;;;10.65;6.13;;;6.10;99.90;;;4.29;100.00;102119.63;2568030;30;137012;-39
2021/10/23 03:25:47;;;;;;;14.60;6.63;;;6.10;99.90;;;4.34;100.00;102124.59;2567456;30;138202;-39
2021/10/23 03:28:15;;;;;;;11.60;6.25;;;6.10;99.90;;;4.36;100.00;102125.31;2565977;30;137431;-39
2021/10/23 03:30:43;;;;;;;10.23;6.00;;;6.10;99.90;;;4.34;100.00;102132.69;2567253;30;138331;-39
2021/10/23 03:33:13;;;;;;;12.65;6.63;;;6.10;99.90;;;4.34;100.00;102133.56;2567117;30;137391;-40
2021/10/23 03:35:41;;;;;;;13.43;6.65;;;6.10;99.90;;;4.40;100.00;102126.75;2568191;30;138183;-39
2021/10/23 03:38:08;;;;;;;11.55;6.70;;;6.10;99.90;;;4.36;100.00;102125.31;2567433;30;137382;-40
2021/10/23 03:40:36;;;;;;;11.20;6.70;;;6.10;99.90;;;4.45;100.00;102140.69;2568035;30;137308;-39
2021/10/23 03:43:03;;;;;;;11.70;6.65;;;6.10;99.90;;;4.45;100.00;102141.53;2566891;30;137528;-39
2021/10/23 03:45:31;;;;;;;11.00;6.90;;;6.20;99.90;;;4.48;100.00;102143.13;2568778;30;138148;-39
2021/10/23 03:47:58;;;;;;;13.00;6.35;;;6.20;99.90;;;4.51;100.00;102147.38;2569069;30;136778;-40
2021/10/23 03:50:26;;;;;;;12.73;6.78;;;6.20;99.90;;;4.53;100.00;102142.72;2569140;30;138177;-39
2021/10/23 03:52:56;;;;;;;13.13;7.60;;;6.20;99.90;;;4.51;100.00;102132.03;2567484;30;137516;-39
2021/10/23 03:55:23;;;;;;;12.48;7.18;;;6.20;99.90;;;4.50;100.00;102134.84;2568682;30;137138;-40
2021/10/23 03:57:51;;;;;;;10.07;6.22;;;6.20;99.90;;;4.45;100.00;102130.72;2567627;30;138364;-39
2021/10/23 04:00:19;;;;;;;;;;;6.20;99.90;;;4.38;100.00;102116.06;2567421;30;138859;-40
2021/10/23 04:02:46;;;;;;;12.40;6.65;;;6.20;99.90;;;4.33;100.00;102112.94;2566657;30;136884;-39
2021/10/23 04:05:14;;;;;;;11.63;5.90;;;6.10;99.90;;;4.25;100.00;102110.09;2568034;30;138248;-39
2021/10/23 04:07:42;;;;;;;8.95;6.03;;;6.10;99.90;;;4.14;100.00;102106.50;2568015;30;136704;-39
2021/10/23 04:10:09;;;;;;;13.10;7.63;;;6.00;99.90;;;4.12;100.00;102123.84;2568887;30;138493;-39
2021/10/23 04:12:37;;;;;;;9.88;6.32;;;5.90;99.90;;;4.09;100.00;102119.56;2566201;30;137279;-39
2021/10/23 04:15:05;;;;;;;9.75;5.82;;;5.90;99.90;;;4.02;100.00;102130.06;2568319;30;137348;-39
2021/10/23 04:17:32;;;;;;;;;;;5.80;99.90;;;3.91;100.00;102126.59;2568297;30;138409;-39
2021/10/23 04:20:00;;;;;;;10.63;5.82;;;5.80;99.90;;;3.88;100.00;102133.16;2567493;30;138612;-40
2021/10/23 04:22:27;;;;;;;10.20;6.05;;;5.70;99.90;;;3.85;100.00;102138.81;2567476;30;136603;-39
2021/10/23 04:24:55;;;;;;;11.07;6.55;;;5.70;99.90;;;3.74;100.00;102137.06;2566166;30;137814;-39
2021/10/23 04:27:22;;;;;;;10.95;5.78;;;5.60;99.90;;;3.68;100.00;102145.69;2568168;30;137313;-40
2021/10/23 04:29:50;;;;;;;12.25;6.57;;;5.50;99.90;;;3.58;100.00;102148.31;2567669;30;138157;-40
2021/10/23 04:32:17;;;;;;;11.45;6.15;;;5.40;99.90;;;3.47;100.00;102138.50;2567549;30;137760;-39
2021/10/23 04:34:46;;;;;;;11.68;6.30;;;5.30;99.90;;;3.43;100.00;102150.50;2566869;30;138023;-39
2021/10/23 04:37:13;;;;;;;11.15;6.03;;;5.30;99.90;;;3.37;100.00;102140.25;2566681;30;138276;-39
2021/10/23 04:39:44;;;;;;;11.68;6.53;;;5.20;99.90;;;3.35;100.00;102143.09;2568399;30;138287;-39
2021/10/23 04:42:11;;;;;;;9.10;5.40;;;5.20;99.90;;;3.30;100.00;102145.31;2567508;30;136808;-39
2021/10/23 04:44:39;;;;;;;11.43;5.90;;;5.10;99.90;;;3.26;100.00;102139.34;2567616;30;138190;-39
2021/10/23 04:47:06;;;;;;;11.13;6.32;;;5.10;99.90;;;3.25;100.00;102139.47;2567142;30;137477;-40
2021/10/23 04:49:34;;;;;;;11.98;5.85;;;5.10;99.90;;;3.21;100.00;102140.72;2568324;30;138499;-40
2021/10/23 04:52:02;;;;;;;11.13;6.25;;;5.00;99.90;;;3.18;100.00;102147.22;2567744;30;137767;-39
2021/10/23 04:54:29;;;;;;;;;;;5.00;99.90;;;3.12;100.00;102137.84;2567680;30;137516;-39
2021/10/23 04:56:57;;;;;;;14.13;6.45;;;5.00;99.90;;;3.11;100.00;102146.06;2568186;30;138032;-39
2021/10/23 04:59:25;;;;;;;18.60;7.68;;;5.00;99.90;;;3.10;100.00;102139.81;2566531;30;138430;-39
2021/10/23 05:01:53;;;;;;;14.40;7.30;;;4.90;99.90;;;3.09;100.00;102145.31;2567180;30;137712;-39
2021/10/23 05:04:21;;;;;;;14.45;7.93;;;4.90;99.90;;;3.08;100.00;102152.59;2567947;30;138193;-39
2021/10/23 05:06:48;;;;;;;13.20;7.57;;;4.90;99.90;;;3.09;100.00;102145.31;2564990;30;137088;-39
2021/10/23 05:09:16;;;;;;;14.13;7.47;;;4.90;99.90;;;3.09;100.00;102153.41;2567480;30;138288;-39
2021/10/23 05:11:43;;;;;;;16.17;7.50;;;4.90;99.90;;;3.08;100.00;102157.09;2568125;30;137094;-39
2021/10/23 05:14:11;;;;;;;12.35;6.85;;;4.90;99.90;;;3.06;100.00;102151.00;2566154;30;138706;-40
2021/10/23 05:16:38;;;;;;;12.25;6.45;;;4.90;99.90;;;3.02;100.00;102153.94;2567368;30;137639;-39
2021/10/23 05:19:06;;;;;;;11.75;6.65;;;4.90;99.90;;;2.98;100.00;102157.91;2567955;30;138418;-39
2021/10/23 05:21:33;;;;;;;13.93;7.50;;;4.80;99.90;;;2.94;100.00;102160.97;2568199;30;137454;-39
2021/10/23 05:24:01;;;;;;;13.27;6.97;;;4.80;99.90;;;2.88;100.00;102162.31;2568587;30;138359;-39
2021/10/23 05:26:28;;;;;;;15.55;8.52;;;4.70;99.90;;;2.90;100.00;102173.00;2565792;30;137683;-39
2021/10/23 05:28:56;;;;;;;16.10;7.90;;;4.70;99.90;;;2.88;100.00;102162.31;2568289;30;137140;-39
2021/10/23 05:31:23;;;;;;;16.88;8.13;;;4.70;99.90;;;2.81;100.00;102169.22;2568629;30;137538;-39
2021/10/23 05:33:55;;;;;;;18.15;8.55;;;4.70;99.90;;;2.73;100.00;102173.44;2567405;30;137179;-40
2021/10/23 05:36:22;;;;;;;14.48;8.20;;;4.60;99.90;;;2.72;100.00;102163.63;2566851;30;137488;-39
2021/10/23 05:38:50;;;;;;;14.43;7.05;;;4.60;99.90;;;2.71;100.00;102166.44;2567444;30;139106;-39
2021/10/23 05:41:17;;;;;;;17.75;7.95;;;4.50;99.90;;;2.67;100.00;102162.28;2568505;30;138566;-39
2021/10/23 05:43:45;;;;;;;15.15;7.18;;;4.50;99.90;;;2.64;100.00;102159.84;2568080;30;137422;-39
2021/10/23 05:46:13;;;;;;;12.38;6.88;;;4.50;99.90;;;2.64;100.00;102170.63;2566401;30;137917;-39
2021/10/23 05:48:40;;;;;;;13.98;7.35;;;4.50;99.90;;;2.62;100.00;102165.34;2566272;30;137868;-39
2021/10/23 05:51:08;;;;;;;12.30;7.15;;;4.50;99.90;;;2.59;100.00;102162.91;2568334;30;137374;-39
2021/10/23 05:53:35;;;;;;;13.25;7.50;;;4.40;99.90;;;2.60;100.00;102172.72;2567378;30;139246;-39
2021/10/23 05:56:03;;;;;;;15.63;7.57;;;4.40;99.90;;;2.59;100.00;102173.69;2564287;30;136763;-39
2021/10/23 05:58:30;;;;;;;12.10;6.97;;;4.40;99.90;;;2.52;100.00;102165.28;2567838;30;138366;-39
2021/10/23 06:01:06;;;;;;;14.43;7.85;;;4.40;99.90;;;2.58;100.00;102182.78;2567075;30;138135;-40
2021/10/23 06:03:36;;;;;;;11.13;6.28;;;4.40;99.90;;;2.56;100.00;102192.81;2568345;30;138272;-39
2021/10/23 06:06:07;;;;;;;15.73;7.82;;;4.40;99.90;;;2.53;100.00;102190.38;2567485;30;136942;-39
2021/10/23 06:08:37;;;;;;;18.02;9.23;;;4.40;99.90;;;2.50;100.00;102193.34;2567379;30;138352;-40
2021/10/23 06:11:07;;;;;;;16.98;9.05;;;4.40;99.90;;;2.52;100.00;102194.06;2565167;30;137030;-39
2021/10/23 06:13:35;;;;;;;20.30;10.45;;;4.40;99.90;;;2.63;100.00;102198.56;2566115;30;139174;-40
2021/10/23 06:16:04;;;;;;;18.40;10.30;;;4.40;99.90;;;2.71;100.00;102196.97;2567613;30;137451;-39
2021/10/23 06:18:31;;;;;;;18.45;9.15;;;4.50;99.90;;;2.71;100.00;102204.16;2567207;30;138398;-39
2021/10/23 06:20:59;;;;;;;19.70;9.98;;;4.50;99.90;;;2.69;100.00;102207.00;2567760;30;137505;-40
2021/10/23 06:23:30;;;;;;;18.42;9.60;;;4.50;99.90;;;2.67;100.00;102208.09;2569249;30;138448;-39
2021/10/23 06:25:59;;;;;;;19.65;10.38;;;4.50;99.90;;;2.64;100.00;102206.50;2568602;30;136997;-39
2021/10/23 06:28:27;;;;;;;18.63;10.02;;;4.50;99.90;;;2.65;100.00;102207.38;2568684;30;136679;-39
2021/10/23 06:30:54;;;;;;;17.83;9.48;;;4.50;99.90;;;2.70;100.00;102215.94;2567729;30;137581;-39
2021/10/23 06:33:22;;;;;;;19.27;9.57;;;4.50;99.90;;;2.75;100.00;102220.97;2568433;30;137793;-39
2021/10/23 06:35:49;;;;;;;14.95;8.27;;;4.50;99.90;;;2.79;100.00;102217.91;2566574;30;137671;-39
2021/10/23 06:38:17;;;;;;;17.83;8.93;;;4.50;99.90;;;2.81;100.00;102220.44;2568411;30;138409;-39
2021/10/23 06:40:44;;;;;;;14.27;8.10;;;4.60;99.90;;;2.82;100.00;102222.16;2567850;30;137635;-39
2021/10/23 06:43:13;;;;;;;16.25;8.48;;;4.60;99.90;;;2.80;100.00;102229.50;2567366;30;138853;-39
2021/10/23 06:45:41;;;;;;;15.68;8.85;;;4.60;99.90;;;2.81;100.00;102239.31;2566722;30;137503;-39
2021/10/23 06:48:10;;;;;;;14.93;8.57;;;4.60;99.90;;;2.79;100.00;102235.88;2566567;30;138434;-39
2021/10/23 06:50:38;;;;;;;16.48;8.20;;;4.60;99.90;;;2.83;100.00;102249.00;2568038;30;138695;-39
2021/10/23 06:53:05;;;;;;;15.32;8.80;;;4.60;99.90;;;2.90;100.00;102257.41;2568397;30;137438;-39
2021/10/23 06:55:33;;;;;;;17.08;9.25;;;4.60;99.90;;;2.94;100.00;102253.50;2568329;30;138196;-40
2021/10/23 06:58:00;;;;;;;18.17;9.18;;;4.70;99.90;;;2.97;100.00;102266.72;2568540;30;139299;-39
2021/10/23 07:00:28;;;;;;;18.45;9.32;;;4.70;99.90;;;3.02;100.00;102266.34;2567310;30;136734;-39
2021/10/23 07:02:55;;;;;;;15.00;8.27;;;4.80;99.90;;;3.07;100.00;102264.13;2568309;30;138140;-39
2021/10/23 07:05:24;;;;;;;21.15;9.68;;;4.80;99.90;;;3.14;100.00;102272.56;2567599;30;138335;-39
2021/10/23 07:07:52;;;;;;;18.92;10.15;;;4.90;99.90;;;3.21;100.00;102273.78;2568128;30;138226;-39
2021/10/23 07:10:19;;;;;;;19.95;9.50;;;4.90;99.90;;;3.33;100.00;102285.38;2567970;30;138156;-39
2021/10/23 07:12:48;;;;;;;;;;;5.00;99.90;;;3.45;100.00;102292.44;2568143;30;137519;-39
2021/10/23 07:15:15;;;;;;;18.58;9.45;;;5.10;99.90;;;3.60;100.00;102302.94;2567848;30;137190;-39
2021/10/23 07:17:43;;;;;;;17.63;8.98;;;5.20;99.90;;;3.74;100.00;102305.28;2567657;30;137184;-39
2021/10/23 07:20:12;;;;;;;19.73;9.65;;;5.30;99.90;;;3.91;100.00;102299.44;2566347;30;137647;-39
2021/10/23 07:22:39;;;;;;;18.80;9.05;;;5.50;99.90;;;4.08;100.00;102306.94;2568687;30;139243;-39
2021/10/23 07:25:08;;;;;;;21.50;10.35;;;5.60;99.90;;;4.16;100.00;102317.09;2568103;30;137103;-39
2021/10/23 07:27:36;;;;;;;21.58;10.90;;;5.70;99.90;;;4.25;100.00;102318.13;2567530;30;138251;-40
2021/10/23 07:30:09;;;;;;;23.40;10.65;;;5.80;99.90;;;4.30;100.00;102318.56;2567997;30;137781;-39
2021/10/23 07:32:39;;;;;;;17.17;9.70;;;5.90;99.90;;;4.28;100.00;102312.47;2568307;30;139157;-39
2021/10/23 07:35:08;;;;;;;23.85;10.90;;;5.90;99.90;;;4.38;100.00;102334.97;2567618;30;137001;-39
2021/10/23 07:37:38;;;;;;;21.05;10.27;;;6.00;99.90;;;4.44;100.00;102329.00;2567637;30;138519;-39
2021/10/23 07:40:09;;;;;;;17.25;9.63;;;6.00;99.90;;;4.53;100.00;102337.31;2569018;30;137525;-40
2021/10/23 07:42:39;;;;;;;17.58;9.30;;;6.10;99.90;;;4.64;100.00;102344.47;2568163;30;137272;-39
2021/10/23 07:45:11;;;;;;;17.35;9.88;;;6.20;99.90;;;4.77;100.00;102350.50;2567418;30;136748;-39
2021/10/23 07:47:41;;;;;;;47.03;25.35;;;6.30;99.90;;;5.13;100.00;102350.88;2565894;30;137955;-39
2021/10/23 07:50:11;;;;;;;33.95;19.05;;;6.60;99.90;;;5.23;100.00;102350.06;2566694;30;137780;-39
2021/10/23 07:52:41;;;;;;;30.77;17.00;;;6.70;99.90;;;5.37;100.00;102352.34;2566217;30;138951;-39
2021/10/23 07:55:10;;;;;;;31.65;15.48;;;6.80;99.90;;;5.48;100.00;102356.78;2566357;30;139386;-40
2021/10/23 07:57:42;;;;;;;30.55;15.15;;;6.90;99.90;;;5.65;100.00;102354.38;2569303;30;138333;-39
2021/10/23 08:00:11;;;;;;;32.40;16.13;;;7.10;99.90;;;5.82;100.00;102361.78;2568987;30;137389;-40
2021/10/23 08:02:59;;;;;;;32.80;15.23;;;7.30;99.90;;;5.98;100.00;102361.22;2568084;30;137271;-39
2021/10/23 08:05:34;;;;;;;31.10;15.10;;;7.40;99.90;;;6.10;100.00;102361.09;2568784;30;137457;-39
2021/10/23 08:08:05;;;;;;;34.35;15.68;;;7.60;99.90;;;6.25;100.00;102362.34;2568024;30;136818;-40
2021/10/23 08:10:35;;;;;;;39.10;17.25;;;7.60;99.90;;;6.43;100.00;102372.41;2567027;30;139030;-40
2021/10/23 08:13:04;;;;;;;38.95;17.70;;;7.80;99.90;;;6.51;100.00;102371.69;2568742;30;139503;-39
2021/10/23 08:15:33;;;;;;;35.38;16.42;;;7.90;99.90;;;6.57;100.00;102381.94;2567781;30;136979;-40
2021/10/23 08:18:04;;;;;;;35.55;17.55;;;8.00;99.90;;;6.65;100.00;102387.50;2567373;30;137761;-40
2021/10/23 08:20:34;;;;;;;39.13;17.48;;;8.00;99.90;;;6.74;100.00;102389.31;2568573;30;136837;-40
2021/10/23 08:23:04;;;;;;;32.53;16.25;;;8.10;99.90;;;6.86;100.00;102389.09;2568198;30;137632;-40
2021/10/23 08:25:34;;;;;;;38.65;18.00;;;8.20;99.90;;;6.95;100.00;102388.22;2567550;30;138295;-38
2021/10/23 08:28:03;;;;;;;38.75;17.80;;;8.30;99.90;;;7.00;100.00;102393.19;2569009;30;138551;-38
2021/10/23 08:30:31;;;;;;;36.70;17.80;;;8.40;99.90;;;7.07;100.00;102391.59;2568547;30;137491;-38
2021/10/23 08:33:00;;;;;;;;;;;8.40;99.90;;;7.19;100.00;102397.69;2567859;30;138649;-38
2021/10/23 08:35:28;;;;;;;39.25;17.65;;;8.50;99.90;;;7.31;100.00;102388.31;2566948;30;137709;-38
2021/10/23 08:37:56;;;;;;;36.70;18.83;;;8.60;99.90;;;7.42;100.00;102394.50;2568550;30;137774;-38
2021/10/23 08:40:23;;;;;;;35.55;17.63;;;8.70;99.90;;;7.54;100.00;102396.00;2569493;30;137102;-38
2021/10/23 08:42:51;;;;;;;40.78;17.80;;;8.80;99.90;;;7.58;100.00;102402.84;2569286;30;138158;-38
2021/10/23 08:45:20;;;;;;;36.35;18.00;;;8.90;99.90;;;7.66;100.00;102407.50;2568287;30;138190;-38
2021/10/23 08:47:48;;;;;;;39.45;17.98;;;9.00;99.90;;;7.79;100.00;102404.41;2569599;30;137156;-38
2021/10/23 08:50:23;;;;;;;36.40;18.02;;;9.10;99.90;;;7.92;100.00;102396.72;2569002;30;137046;-38
2021/10/23 08:52:56;;;;;;;36.72;18.60;;;9.30;99.90;;;7.95;100.00;102406.44;2570149;30;138401;-37
2021/10/23 08:55:24;;;;;;;33.90;16.83;;;9.30;99.90;;;8.00;100.00;102414.97;2571330;30;137661;-38
2021/10/23 08:57:51;;;;;;;;;;;9.30;99.90;;;8.05;100.00;102417.22;2569792;30;138497;-38
2021/10/23 09:00:20;;;;;;;31.52;15.52;;;9.40;99.90;;;8.07;100.00;102410.59;2569069;30;137779;-38
2021/10/23 09:02:48;;;;;;;33.05;17.65;;;9.40;99.90;;;8.20;100.00;102417.50;2568539;30;138676;-38
2021/10/23 09:05:16;;;;;;;33.78;18.63;;;9.50;99.90;;;8.30;100.00;102418.25;2569400;30;137611;-38
2021/10/23 09:07:50;;;;;;;30.58;17.52;;;9.60;99.90;;;8.40;100.00;102418.16;2569326;30;139363;-38
2021/10/23 09:10:31;;;;;;;32.30;17.58;;;9.70;99.90;;;8.59;100.00;102427.16;2568182;30;138422;-38
2021/10/23 09:13:05;;;;;;;35.90;19.25;;;9.80;99.90;;;8.69;100.00;102425.19;2570590;30;138509;-38
2021/10/23 09:15:42;;;;;;;33.83;17.75;;;9.90;99.90;;;8.76;100.00;102425.41;2567576;30;138475;-38
2021/10/23 09:18:10;;;;;;;32.47;18.30;;;10.00;99.90;;;8.90;100.00;102427.53;2567051;30;137691;-38
2021/10/23 09:20:41;;;;;;;31.92;17.85;;;10.10;99.90;;;9.06;100.00;102426.75;2566807;30;137725;-38
2021/10/23 09:23:21;;;;;;;30.40;17.38;;;10.30;99.90;;;9.25;100.00;102424.78;2569032;30;138409;-38
2021/10/23 09:25:51;;;;;;;29.70;17.10;;;10.50;99.90;;;9.28;100.00;102424.47;2569545;30;137763;-38
2021/10/23 09:28:31;;;;;;;30.67;16.90;;;10.60;99.90;;;9.41;100.00;102426.69;2566841;30;138787;-38
2021/10/23 09:30:59;;;;;;;27.77;17.08;;;10.70;99.90;;;9.47;100.00;102417.88;2569627;30;137077;-38
2021/10/23 09:33:31;;;;;;;28.50;16.65;;;10.80;99.90;;;9.58;100.00;102419.44;2569294;30;138283;-38
2021/10/23 09:36:04;;;;;;;28.58;16.88;;;10.90;99.90;;;9.73;100.00;102424.22;2568670;30;137756;-38
2021/10/23 09:38:33;;;;;;;30.75;17.15;;;11.00;99.90;;;9.85;100.00;102436.53;2569135;30;138316;-38
2021/10/23 09:41:25;;;;;;;29.48;17.17;;;11.10;99.90;;;9.95;99.05;102432.78;2568834;30;137646;-38
2021/10/23 09:44:15;;;;;;;30.08;17.88;;;11.20;99.90;;;10.11;99.65;102432.78;2568451;30;137706;-38
2021/10/23 09:46:55;;;;;;;29.23;15.68;;;11.30;99.90;;;10.30;99.15;102434.31;2572204;30;137223;-38
2021/10/23 09:49:27;;;;;;;28.48;15.90;;;11.40;99.90;;;10.41;97.70;102433.16;2567248;30;138131;-38
2021/10/23 09:52:07;;;;;;;29.08;16.55;;;11.60;99.90;;;10.47;95.64;102443.38;2569123;30;137552;-38
2021/10/23 09:54:37;;;;;;;;;;;11.60;99.90;;;10.57;97.12;102442.31;2570747;30;137167;-38
2021/10/23 09:57:17;;;;;;;26.83;14.30;;;11.70;99.90;;;10.60;95.80;102445.56;2570105;30;137781;-38
2021/10/23 09:59:45;;;;;;;22.10;13.57;;;11.80;99.90;;;10.72;94.91;102451.53;2569474;30;138374;-38
2021/10/23 10:02:20;;;;;;;22.83;13.63;;;11.90;99.90;;;10.70;93.51;102447.25;2569536;30;136725;-38
2021/10/23 10:04:48;;;;;;;23.25;12.95;;;11.90;99.90;;;10.75;94.25;102455.81;2568845;30;138284;-38
2021/10/23 10:07:16;;;;;;;20.80;12.48;;;11.90;99.90;;;10.76;93.15;102455.59;2568778;30;137502;-38
2021/10/23 10:09:46;;;;;;;20.50;13.23;;;12.00;99.90;;;10.81;93.14;102466.00;2567852;30;138275;-38
2021/10/23 10:12:13;;;;;;;20.05;12.30;;;12.00;99.90;;;10.84;93.43;102464.78;2570460;30;137534;-38
2021/10/23 10:14:42;;;;;;;23.50;13.43;;;12.00;99.90;;;10.85;93.69;102463.78;2568805;30;138669;-38